createdAt,value
2023-01-13T00:00:43.944Z,10.32
2023-01-13T00:03:10.592Z,10.29
2023-01-13T00:05:37.303Z,10.35
2023-01-13T00:08:06.200Z,10.31
2023-01-13T00:10:33.639Z,10.29
2023-01-13T00:13:00.885Z,10.21
2023-01-13T00:15:27.245Z,10.27
2023-01-13T00:17:53.787Z,10.22
2023-01-13T00:20:20.267Z,10.22
2023-01-13T00:22:46.980Z,10.23
2023-01-13T00:25:13.610Z,10.16
2023-01-13T00:27:40.085Z,10.16
2023-01-13T00:30:07.397Z,10.14
2023-01-13T00:32:33.970Z,10.12
2023-01-13T00:35:00.393Z,10.14
2023-01-13T00:37:27.134Z,10.07
2023-01-13T00:39:53.572Z,10.07
2023-01-13T00:42:38.620Z,10.09
2023-01-13T00:45:05.178Z,10.00
2023-01-13T00:47:32.031Z,10.02
2023-01-13T00:49:58.506Z,9.95
2023-01-13T00:52:24.955Z,9.96
2023-01-13T00:54:51.269Z,10.02
2023-01-13T00:57:18.700Z,9.97
2023-01-13T00:59:45.129Z,9.97
2023-01-13T01:02:11.553Z,9.98
2023-01-13T01:04:38.129Z,9.97
2023-01-13T01:07:04.584Z,9.96
2023-01-13T01:09:32.555Z,9.90
2023-01-13T01:11:59.818Z,9.92
2023-01-13T01:14:27.139Z,9.92
2023-01-13T01:16:54.249Z,9.93
2023-01-13T01:19:20.662Z,9.86
2023-01-13T01:21:48.264Z,9.87
2023-01-13T01:24:16.510Z,9.74
2023-01-13T01:26:43.890Z,9.79
2023-01-13T01:29:12.067Z,9.74
2023-01-13T01:31:38.418Z,9.71
2023-01-13T01:34:04.911Z,9.67
2023-01-13T01:36:31.672Z,9.67
2023-01-13T01:38:58.668Z,9.59
2023-01-13T01:41:27.651Z,9.63
2023-01-13T01:43:59.162Z,9.56
2023-01-13T01:46:33.597Z,9.49
2023-01-13T01:49:15.238Z,9.40
2023-01-13T01:51:43.977Z,9.44
2023-01-13T01:54:12.400Z,9.37
2023-01-13T01:56:41.709Z,9.34
2023-01-13T01:59:08.148Z,9.31
2023-01-13T02:01:34.625Z,9.24
2023-01-13T02:04:19.411Z,9.27
2023-01-13T02:06:47.016Z,9.22
2023-01-13T02:09:13.819Z,9.18
2023-01-13T02:12:09.440Z,9.17
2023-01-13T02:14:37.295Z,9.14
2023-01-13T02:17:19.430Z,9.19
2023-01-13T02:20:04.301Z,9.18
2023-01-13T02:22:52.408Z,9.08
2023-01-13T02:25:21.846Z,9.11
2023-01-13T02:28:02.672Z,9.14
2023-01-13T02:30:58.731Z,9.21
2023-01-13T02:33:35.688Z,9.10
2023-01-13T02:36:02.565Z,9.18
2023-01-13T02:38:33.032Z,9.16
2023-01-13T02:41:27.798Z,9.16
2023-01-13T02:44:07.431Z,9.14
2023-01-13T02:46:37.930Z,9.15
2023-01-13T02:49:07.253Z,9.14
2023-01-13T02:51:34.804Z,9.15
2023-01-13T02:54:03.505Z,9.15
2023-01-13T02:56:30.619Z,9.20
2023-01-13T02:58:58.299Z,9.17
2023-01-13T03:01:25.044Z,9.19
2023-01-13T03:03:51.485Z,9.31
2023-01-13T03:06:31.744Z,9.26
2023-01-13T03:09:06.746Z,9.25
2023-01-13T03:11:37.997Z,9.33
2023-01-13T03:14:12.786Z,9.30
2023-01-13T03:16:49.901Z,9.35
2023-01-13T03:19:16.331Z,9.35
2023-01-13T03:21:51.350Z,9.36
2023-01-13T03:24:21.648Z,9.38
2023-01-13T03:27:07.026Z,9.32
2023-01-13T03:29:34.633Z,9.24
2023-01-13T03:32:05.011Z,9.31
2023-01-13T03:34:33.579Z,9.34
2023-01-13T03:37:03.388Z,9.40
2023-01-13T03:39:32.110Z,9.36
2023-01-13T03:42:10.605Z,9.36
2023-01-13T03:44:47.553Z,9.38
2023-01-13T03:47:32.459Z,9.33
2023-01-13T03:50:17.674Z,9.30
2023-01-13T03:52:47.284Z,9.35
2023-01-13T03:55:15.348Z,9.33
2023-01-13T03:57:46.739Z,9.40
2023-01-13T04:00:14.508Z,9.32
2023-01-13T04:02:50.007Z,9.30
2023-01-13T04:05:17.110Z,9.25
2023-01-13T04:07:51.044Z,9.28
2023-01-13T04:10:27.717Z,9.22
2023-01-13T04:13:06.500Z,9.30
2023-01-13T04:15:34.942Z,9.24
2023-01-13T04:18:01.934Z,9.25
2023-01-13T04:20:28.312Z,9.23
2023-01-13T04:22:54.686Z,9.25
2023-01-13T04:25:21.080Z,9.18
2023-01-13T04:27:47.435Z,9.30
2023-01-13T04:30:13.847Z,9.24
2023-01-13T04:32:41.393Z,9.29
2023-01-13T04:35:08.419Z,9.23
2023-01-13T04:37:34.805Z,9.27
2023-01-13T04:40:01.160Z,9.21
2023-01-13T04:42:27.519Z,9.18
2023-01-13T04:44:53.968Z,9.25
2023-01-13T04:47:20.341Z,9.24
2023-01-13T04:49:46.939Z,9.15
2023-01-13T04:52:13.375Z,9.25
2023-01-13T04:54:39.758Z,9.19
2023-01-13T04:57:06.045Z,9.22
2023-01-13T04:59:34.553Z,9.17
2023-01-13T05:02:01.444Z,9.13
2023-01-13T05:04:27.896Z,9.14
2023-01-13T05:06:54.258Z,9.14
2023-01-13T05:09:20.625Z,9.13
2023-01-13T05:12:05.514Z,9.10
2023-01-13T05:14:50.344Z,9.10
2023-01-13T05:17:20.018Z,9.05
2023-01-13T05:19:46.874Z,8.96
2023-01-13T05:22:32.130Z,9.08
2023-01-13T05:25:17.035Z,9.14
2023-01-13T05:27:43.433Z,9.12
2023-01-13T05:30:10.363Z,9.05
2023-01-13T05:32:36.732Z,8.96
2023-01-13T05:35:03.703Z,9.05
2023-01-13T05:37:30.171Z,9.07
2023-01-13T05:40:15.132Z,9.03
2023-01-13T05:43:00.266Z,8.98
2023-01-13T05:45:26.666Z,8.98
2023-01-13T05:47:53.051Z,9.06
2023-01-13T05:50:19.378Z,9.04
2023-01-13T05:52:45.727Z,9.07
2023-01-13T05:55:12.364Z,9.08
2023-01-13T05:57:38.729Z,9.06
2023-01-13T06:00:05.678Z,9.08
2023-01-13T06:02:32.231Z,9.05
2023-01-13T06:04:58.615Z,8.99
2023-01-13T06:07:25.010Z,8.98
2023-01-13T06:09:51.409Z,9.02
2023-01-13T06:12:17.758Z,9.05
2023-01-13T06:14:44.068Z,9.02
2023-01-13T06:17:11.986Z,9.01
2023-01-13T06:19:38.489Z,8.96
2023-01-13T06:22:07.648Z,9.05
2023-01-13T06:24:34.010Z,9.09
2023-01-13T06:27:00.411Z,9.11
2023-01-13T06:29:26.871Z,9.12
2023-01-13T06:31:56.581Z,9.17
2023-01-13T06:34:23.090Z,9.12
2023-01-13T06:36:52.100Z,9.15
2023-01-13T06:39:20.214Z,9.17
2023-01-13T06:42:06.945Z,9.19
2023-01-13T06:44:33.519Z,9.30
2023-01-13T06:47:00.021Z,9.24
2023-01-13T06:49:26.495Z,9.22
2023-01-13T06:51:52.865Z,9.22
2023-01-13T06:54:19.253Z,9.30
2023-01-13T06:56:45.781Z,9.26
2023-01-13T06:59:12.122Z,9.34
2023-01-13T07:01:38.651Z,9.38
2023-01-13T07:04:05.148Z,9.33
2023-01-13T07:06:31.623Z,9.37
2023-01-13T07:08:57.959Z,9.44
2023-01-13T07:11:24.957Z,9.35
2023-01-13T07:14:10.067Z,9.43
2023-01-13T07:16:36.438Z,9.38
2023-01-13T07:19:03.140Z,9.43
2023-01-13T07:21:29.706Z,9.43
2023-01-13T07:23:56.231Z,9.33
2023-01-13T07:26:22.572Z,9.37
2023-01-13T07:28:49.098Z,9.43
2023-01-13T07:31:16.959Z,9.34
2023-01-13T07:33:43.384Z,9.34
2023-01-13T07:36:09.934Z,9.38
2023-01-13T07:38:36.575Z,9.39
2023-01-13T07:41:22.934Z,9.35
2023-01-13T07:43:49.570Z,9.40
2023-01-13T07:46:16.294Z,9.34
2023-01-13T07:48:42.641Z,9.34
2023-01-13T07:51:10.592Z,9.36
2023-01-13T07:53:37.277Z,9.40
2023-01-13T07:56:04.621Z,9.38
2023-01-13T07:58:32.419Z,9.24
2023-01-13T08:00:59.040Z,9.29
2023-01-13T08:03:26.318Z,9.38
2023-01-13T08:05:52.929Z,9.30
2023-01-13T08:08:19.320Z,9.21
2023-01-13T08:10:45.708Z,9.13
2023-01-13T08:13:20.168Z,9.15
2023-01-13T08:15:53.746Z,9.11
2023-01-13T08:18:22.141Z,9.09
2023-01-13T08:20:49.190Z,9.06
2023-01-13T08:23:15.585Z,8.98
2023-01-13T08:25:42.292Z,8.91
2023-01-13T08:28:08.793Z,8.87
2023-01-13T08:30:35.229Z,8.86
2023-01-13T08:33:01.976Z,8.73
2023-01-13T08:35:28.346Z,8.71
2023-01-13T08:37:54.790Z,8.75
2023-01-13T08:40:22.263Z,8.75
2023-01-13T08:42:48.963Z,8.78
2023-01-13T08:45:15.623Z,8.77
2023-01-13T08:47:42.275Z,8.82
2023-01-13T08:50:09.056Z,8.81
2023-01-13T08:52:35.444Z,8.80
2023-01-13T08:55:01.817Z,8.72
2023-01-13T08:57:28.732Z,8.82
2023-01-13T08:59:55.274Z,8.80
2023-01-13T09:02:22.783Z,8.82
2023-01-13T09:04:49.640Z,8.70
2023-01-13T09:07:16.519Z,8.79
2023-01-13T09:09:43.150Z,8.76
2023-01-13T09:12:32.608Z,8.77
2023-01-13T09:14:59.150Z,8.84
2023-01-13T09:17:25.614Z,8.72
2023-01-13T09:19:52.066Z,8.82
2023-01-13T09:22:21.784Z,8.70
2023-01-13T09:24:48.107Z,8.86
2023-01-13T09:27:15.095Z,8.81
2023-01-13T09:29:42.381Z,8.84
2023-01-13T09:32:11.931Z,8.90
2023-01-13T09:34:57.023Z,8.78
2023-01-13T09:37:23.371Z,8.87
2023-01-13T09:39:49.681Z,8.86
2023-01-13T09:42:43.816Z,8.87
2023-01-13T09:45:15.781Z,8.81
2023-01-13T09:48:05.397Z,8.81
2023-01-13T09:50:36.945Z,8.79
2023-01-13T09:53:05.151Z,8.84
2023-01-13T09:55:36.857Z,8.86
2023-01-13T09:58:10.376Z,8.82
2023-01-13T10:00:44.437Z,8.82
2023-01-13T10:03:19.912Z,8.78
2023-01-13T10:06:04.814Z,8.82
2023-01-13T10:08:41.844Z,8.70
2023-01-13T10:11:35.666Z,8.76
2023-01-13T10:14:03.812Z,8.79
2023-01-13T10:16:42.136Z,8.77
2023-01-13T10:19:18.681Z,8.84
2023-01-13T10:21:45.093Z,8.86
2023-01-13T10:24:20.135Z,8.83
2023-01-13T10:27:00.189Z,8.85
2023-01-13T10:29:28.002Z,8.89
2023-01-13T10:31:55.407Z,8.87
2023-01-13T10:34:22.712Z,8.83
2023-01-13T10:36:56.625Z,8.89
2023-01-13T10:39:22.975Z,8.86
2023-01-13T10:41:51.987Z,8.88
2023-01-13T10:44:18.843Z,8.97
2023-01-13T10:46:53.395Z,8.99
2023-01-13T10:49:33.039Z,8.97
2023-01-13T10:52:00.276Z,9.02
2023-01-13T10:54:26.779Z,9.01
2023-01-13T10:57:11.642Z,9.01
2023-01-13T10:59:38.003Z,8.94
2023-01-13T11:02:24.180Z,9.00
2023-01-13T11:05:00.522Z,9.10
2023-01-13T11:07:33.092Z,9.11
2023-01-13T11:10:08.815Z,9.09
2023-01-13T11:12:41.421Z,9.07
2023-01-13T11:15:09.569Z,9.05
2023-01-13T11:17:40.574Z,9.06
2023-01-13T11:20:13.073Z,9.09
2023-01-13T11:22:43.035Z,9.04
2023-01-13T11:25:11.542Z,9.04
2023-01-13T11:27:38.055Z,9.09
2023-01-13T11:30:21.110Z,9.09
2023-01-13T11:32:59.654Z,9.11
2023-01-13T11:35:26.951Z,9.13
2023-01-13T11:38:01.803Z,9.11
2023-01-13T11:40:34.271Z,9.11
2023-01-13T11:43:17.849Z,9.08
2023-01-13T11:45:46.106Z,9.19
2023-01-13T11:48:14.627Z,9.22
2023-01-13T11:50:51.111Z,9.22
2023-01-13T11:53:26.351Z,9.20
2023-01-13T11:55:52.859Z,9.31
2023-01-13T11:58:45.657Z,9.27
2023-01-13T12:01:37.013Z,9.34
2023-01-13T12:04:06.064Z,9.45
2023-01-13T12:06:37.386Z,9.40
2023-01-13T12:09:04.998Z,9.41
2023-01-13T12:12:00.537Z,9.57
2023-01-13T12:14:32.998Z,9.54
2023-01-13T12:17:01.408Z,9.57
2023-01-13T12:19:30.212Z,9.58
2023-01-13T12:21:56.623Z,9.60
2023-01-13T12:24:29.385Z,9.68
2023-01-13T12:26:59.038Z,9.68
2023-01-13T12:29:30.838Z,9.72
2023-01-13T12:32:00.118Z,9.68
2023-01-13T12:34:35.805Z,9.79
2023-01-13T12:37:20.826Z,9.81
2023-01-13T12:40:06.137Z,9.81
2023-01-13T12:42:51.123Z,9.83
2023-01-13T12:45:25.528Z,9.88
2023-01-13T12:47:51.982Z,9.89
2023-01-13T12:50:24.795Z,9.89
2023-01-13T12:52:52.723Z,9.88
2023-01-13T12:55:28.773Z,9.86
2023-01-13T12:57:58.228Z,9.92
2023-01-13T13:00:30.897Z,9.90
2023-01-13T13:03:12.557Z,9.88
2023-01-13T13:05:57.985Z,9.84
2023-01-13T13:08:26.487Z,9.89
2023-01-13T13:11:02.938Z,9.90
2023-01-13T13:13:45.083Z,9.89
2023-01-13T13:16:26.945Z,9.93
2023-01-13T13:19:14.403Z,9.93
2023-01-13T13:21:59.453Z,9.91
2023-01-13T13:24:26.168Z,9.96
2023-01-13T13:26:52.514Z,9.98
2023-01-13T13:29:40.763Z,10.01
2023-01-13T13:32:14.185Z,9.97
2023-01-13T13:34:43.579Z,10.08
2023-01-13T13:37:17.089Z,10.08
2023-01-13T13:40:02.906Z,10.11
2023-01-13T13:42:53.458Z,10.11
2023-01-13T13:45:45.276Z,10.13
2023-01-13T13:48:20.510Z,10.19
2023-01-13T13:50:47.419Z,10.17
2023-01-13T13:53:13.808Z,10.21
2023-01-13T13:55:40.267Z,10.06
2023-01-13T13:58:17.198Z,10.18
2023-01-13T14:00:47.527Z,10.11
2023-01-13T14:03:24.697Z,10.18
2023-01-13T14:05:57.568Z,10.18
2023-01-13T14:08:24.627Z,10.19
2023-01-13T14:10:51.429Z,10.10
2023-01-13T14:13:17.889Z,10.16
2023-01-13T14:15:44.740Z,10.15
2023-01-13T14:18:13.292Z,10.13
2023-01-13T14:20:40.611Z,10.21
2023-01-13T14:23:07.288Z,10.20
2023-01-13T14:25:37.002Z,10.23
2023-01-13T14:28:07.869Z,10.22
2023-01-13T14:30:34.327Z,10.23
2023-01-13T14:33:00.842Z,10.28
2023-01-13T14:35:27.373Z,10.22
2023-01-13T14:38:01.019Z,10.20
2023-01-13T14:40:33.514Z,10.22
2023-01-13T14:43:00.342Z,10.23
2023-01-13T14:45:26.946Z,10.19
2023-01-13T14:47:54.116Z,10.26
2023-01-13T14:50:23.421Z,10.30
2023-01-13T14:52:54.467Z,10.25
2023-01-13T14:55:20.811Z,10.26
2023-01-13T14:57:47.516Z,10.27
2023-01-13T15:00:13.969Z,10.28
2023-01-13T15:02:40.377Z,10.17
2023-01-13T15:05:19.098Z,10.27
2023-01-13T15:07:52.947Z,10.18
2023-01-13T15:10:20.320Z,10.16
2023-01-13T15:12:49.710Z,10.18
2023-01-13T15:15:28.856Z,10.08
2023-01-13T15:17:55.344Z,10.13
2023-01-13T15:20:23.002Z,10.12
2023-01-13T15:22:49.909Z,10.10
2023-01-13T15:25:16.387Z,10.06
2023-01-13T15:27:47.780Z,9.88
2023-01-13T15:30:15.220Z,9.78
2023-01-13T15:32:41.973Z,9.67
2023-01-13T15:35:09.757Z,9.75
2023-01-13T15:37:36.184Z,9.69
2023-01-13T15:40:02.583Z,9.74
2023-01-13T15:42:47.798Z,9.64
2023-01-13T15:45:33.020Z,9.56
2023-01-13T15:47:59.940Z,9.59
2023-01-13T15:50:26.986Z,9.51
2023-01-13T15:52:53.297Z,9.59
2023-01-13T15:55:19.784Z,9.64
2023-01-13T15:57:48.341Z,9.62
2023-01-13T16:00:16.187Z,9.71
2023-01-13T16:02:44.237Z,9.64
2023-01-13T16:05:10.682Z,9.71
2023-01-13T16:07:37.401Z,9.68
2023-01-13T16:10:05.048Z,9.75
2023-01-13T16:12:31.952Z,9.78
2023-01-13T16:14:58.326Z,9.74
2023-01-13T16:17:25.668Z,9.76
2023-01-13T16:19:51.975Z,9.78
2023-01-13T16:22:18.635Z,9.76
2023-01-13T16:24:45.285Z,9.78
2023-01-13T16:27:29.808Z,9.84
2023-01-13T16:29:56.302Z,9.87
2023-01-13T16:32:22.717Z,9.80
2023-01-13T16:34:49.451Z,9.87
2023-01-13T16:37:20.296Z,9.86
2023-01-13T16:39:46.977Z,9.85
2023-01-13T16:42:13.878Z,9.83
2023-01-13T16:44:40.716Z,9.83
2023-01-13T16:47:12.495Z,9.90
2023-01-13T16:49:38.872Z,9.86
2023-01-13T16:52:05.188Z,9.85
2023-01-13T16:54:31.598Z,9.85
2023-01-13T16:56:57.970Z,9.89
2023-01-13T16:59:24.356Z,9.87
2023-01-13T17:01:51.946Z,9.83
2023-01-13T17:04:19.412Z,9.79
2023-01-13T17:06:51.713Z,9.78
2023-01-13T17:09:19.204Z,9.79
2023-01-13T17:11:45.561Z,9.86
2023-01-13T17:14:18.919Z,9.83
2023-01-13T17:16:46.029Z,9.81
2023-01-13T17:19:12.739Z,9.78
2023-01-13T17:21:39.092Z,9.74
2023-01-13T17:24:09.527Z,9.81
2023-01-13T17:26:37.236Z,9.83
2023-01-13T17:29:08.638Z,9.88
2023-01-13T17:31:35.614Z,9.73
2023-01-13T17:34:03.008Z,9.81
2023-01-13T17:36:29.585Z,9.79
2023-01-13T17:38:56.499Z,9.74
2023-01-13T17:41:23.403Z,9.65
2023-01-13T17:43:49.923Z,9.65
2023-01-13T17:46:19.938Z,9.73
2023-01-13T17:48:46.802Z,9.72
2023-01-13T17:51:13.844Z,9.62
2023-01-13T17:53:44.128Z,9.55
2023-01-13T17:56:11.221Z,9.52
2023-01-13T17:58:37.908Z,9.58
2023-01-13T18:01:08.642Z,9.43
2023-01-13T18:03:35.362Z,9.36
2023-01-13T18:06:02.712Z,9.38
2023-01-13T18:08:29.060Z,9.35
2023-01-13T18:10:57.793Z,9.34
2023-01-13T18:13:24.199Z,9.41
2023-01-13T18:15:58.956Z,9.35
2023-01-13T18:18:25.290Z,9.39
2023-01-13T18:21:10.583Z,9.35
2023-01-13T18:24:15.603Z,9.30
2023-01-13T18:27:00.816Z,9.26
2023-01-13T18:29:27.226Z,9.22
2023-01-13T18:31:53.682Z,9.27
2023-01-13T18:34:21.072Z,9.17
2023-01-13T18:36:47.851Z,9.11
2023-01-13T18:39:23.626Z,9.12
2023-01-13T18:42:09.130Z,9.01
2023-01-13T18:44:35.573Z,9.02
2023-01-13T18:47:02.054Z,9.07
2023-01-13T18:49:28.809Z,9.08
2023-01-13T18:51:55.175Z,9.04
2023-01-13T18:54:21.659Z,9.08
2023-01-13T18:56:49.452Z,9.05
2023-01-13T18:59:16.471Z,8.98
2023-01-13T19:01:43.445Z,8.99
2023-01-13T19:04:15.433Z,8.90
2023-01-13T19:06:52.081Z,8.77
2023-01-13T19:09:20.467Z,8.66
2023-01-13T19:11:46.840Z,8.62
2023-01-13T19:14:33.399Z,8.55
2023-01-13T19:17:04.251Z,8.54
2023-01-13T19:19:31.235Z,8.63
2023-01-13T19:21:57.619Z,8.59
2023-01-13T19:24:25.954Z,8.54
2023-01-13T19:26:54.427Z,8.55
2023-01-13T19:29:20.917Z,8.62
2023-01-13T19:31:48.055Z,8.57
2023-01-13T19:34:14.655Z,8.53
2023-01-13T19:36:41.029Z,8.50
2023-01-13T19:39:08.330Z,8.47
2023-01-13T19:41:53.643Z,8.51
2023-01-13T19:44:38.801Z,8.44
2023-01-13T19:47:06.440Z,8.56
2023-01-13T19:49:33.341Z,8.59
2023-01-13T19:51:59.834Z,8.66
2023-01-13T19:54:26.233Z,8.69
2023-01-13T19:56:52.625Z,8.59
2023-01-13T19:59:22.077Z,8.61
2023-01-13T20:01:48.598Z,8.64
2023-01-13T20:04:17.011Z,8.59
2023-01-13T20:06:43.701Z,8.60
2023-01-13T20:09:10.045Z,8.62
2023-01-13T20:11:37.675Z,8.57
2023-01-13T20:14:04.128Z,8.69
2023-01-13T20:16:32.953Z,8.74
2023-01-13T20:18:59.410Z,8.74
2023-01-13T20:21:26.466Z,8.77
2023-01-13T20:23:53.236Z,8.74
2023-01-13T20:26:20.478Z,8.72
2023-01-13T20:28:47.265Z,8.72
2023-01-13T20:31:14.268Z,8.87
2023-01-13T20:33:40.638Z,8.94
2023-01-13T20:36:07.738Z,9.00
2023-01-13T20:38:40.029Z,9.03
2023-01-13T20:41:25.509Z,9.04
2023-01-13T20:43:52.782Z,9.02
2023-01-13T20:46:19.299Z,9.07
2023-01-13T20:48:45.783Z,9.06
2023-01-13T20:51:12.162Z,9.12
2023-01-13T20:53:38.615Z,9.15
2023-01-13T20:56:05.715Z,9.12
2023-01-13T20:58:32.106Z,9.01
2023-01-13T21:00:58.787Z,9.04
2023-01-13T21:03:25.193Z,9.09
2023-01-13T21:05:51.603Z,9.15
2023-01-13T21:08:18.188Z,9.14
2023-01-13T21:10:45.040Z,9.20
2023-01-13T21:13:30.265Z,9.23
2023-01-13T21:15:56.639Z,9.21
2023-01-13T21:18:41.535Z,9.13
2023-01-13T21:21:14.014Z,9.14
2023-01-13T21:23:41.168Z,9.14
2023-01-13T21:26:09.020Z,8.97
2023-01-13T21:28:36.634Z,8.96
2023-01-13T21:31:04.502Z,8.97
2023-01-13T21:33:31.200Z,9.08
2023-01-13T21:35:57.854Z,9.07
2023-01-13T21:38:25.797Z,9.07
2023-01-13T21:41:02.467Z,9.10
2023-01-13T21:43:47.585Z,9.09
2023-01-13T21:46:33.537Z,9.07
2023-01-13T21:49:00.409Z,9.05
2023-01-13T21:51:27.244Z,9.08
2023-01-13T21:53:53.967Z,9.07
2023-01-13T21:56:20.637Z,9.01
2023-01-13T21:58:47.260Z,9.01
2023-01-13T22:01:14.276Z,9.06
2023-01-13T22:03:59.430Z,9.06
2023-01-13T22:06:26.102Z,9.08
2023-01-13T22:08:54.290Z,9.07
2023-01-13T22:11:20.790Z,9.14
2023-01-13T22:14:06.514Z,9.08
2023-01-13T22:16:39.030Z,9.15
2023-01-13T22:19:06.210Z,9.16
2023-01-13T22:21:32.701Z,9.17
2023-01-13T22:23:59.300Z,9.19
2023-01-13T22:26:25.751Z,9.21
2023-01-13T22:28:52.197Z,9.16
2023-01-13T22:31:21.100Z,9.14
2023-01-13T22:33:48.275Z,9.12
2023-01-13T22:36:15.220Z,9.08
2023-01-13T22:38:41.609Z,9.08
2023-01-13T22:41:08.816Z,9.14
2023-01-13T22:43:36.133Z,9.13
2023-01-13T22:46:07.339Z,9.12
2023-01-13T22:48:33.766Z,9.15
2023-01-13T22:51:06.335Z,9.19
2023-01-13T22:53:33.009Z,9.16
2023-01-13T22:56:00.284Z,9.20
2023-01-13T22:58:27.375Z,9.20
2023-01-13T23:00:54.884Z,9.22
2023-01-13T23:03:22.025Z,9.25
2023-01-13T23:05:48.676Z,9.22
2023-01-13T23:08:15.064Z,9.23
2023-01-13T23:10:41.444Z,9.21
2023-01-13T23:13:08.616Z,9.27
2023-01-13T23:15:35.387Z,9.17
2023-01-13T23:18:02.685Z,9.22
2023-01-13T23:20:31.118Z,9.23
2023-01-13T23:23:00.397Z,9.15
2023-01-13T23:25:27.017Z,9.16
2023-01-13T23:27:53.437Z,9.12
2023-01-13T23:30:19.999Z,9.16
2023-01-13T23:32:46.381Z,9.13
2023-01-13T23:35:13.137Z,9.03
2023-01-13T23:37:39.498Z,8.99
2023-01-13T23:40:06.674Z,9.06
2023-01-13T23:42:33.136Z,8.93
2023-01-13T23:44:59.445Z,8.83
2023-01-13T23:47:25.819Z,8.80
2023-01-13T23:49:52.142Z,8.69
2023-01-13T23:52:18.488Z,8.81
2023-01-13T23:54:44.842Z,8.79
2023-01-13T23:57:11.293Z,8.77
2023-01-13T23:59:37.682Z,8.72
